YWOM weather

Woolomin Airport
New South Wales, Australia

Public forecast

Using degrees Celsius for public forecast. Weather courtesy of forecast.io.

METAR (pilot weather report)

Closest report is Tamworth Airport, 20.3 nm (37.6 km) NW. Retrieved 2019/04/22 19:30 UTC (5 minutes ago):

YSTW 221930Z AUTO 20008KT 9999 // NCD 16/11 Q1024 RF00.0/000.0

TAF (pilot weather forecast)

Closest forecast is Tamworth Airport, 20.3 nm (37.6 km) NW. Retrieved 2019/04/22 18:36 UTC (59 minutes ago):

TAF TAF YSTW 221650Z 2218/2312 09008KT CAVOK